Time;durP1;ratioP1;P1;durP2;ratioP2;P2;SDS_P1;SDS_P2;PMS_P1;PMS_P2;Temp;Humidity;BMP_temperature;BMP_pressure;BME280_temperature;BME280_humidity;BME280_pressure;Samples;Min_cycle;Max_cycle;Signal;HPM_P1;HPM_P2
2022/03/02 00:00:15;;;;;;;4.43;4.03;;;1.10;75.30;;;;;;624463;226;26653;-72
2022/03/02 00:02:43;;;;;;;6.07;4.20;;;1.10;75.30;;;;;;626232;229;26563;-72
2022/03/02 00:05:09;;;;;;;4.70;4.18;;;1.10;75.20;;;;;;627655;228;26784;-73
2022/03/02 00:07:37;;;;;;;4.35;3.95;;;1.00;75.70;;;;;;626608;229;26545;-72
2022/03/02 00:10:05;;;;;;;4.87;4.30;;;1.00;75.50;;;;;;626231;229;26537;-73
2022/03/02 00:12:34;;;;;;;4.65;4.10;;;1.00;75.60;;;;;;626114;225;26567;-72
2022/03/02 00:15:01;;;;;;;5.95;4.50;;;1.00;75.60;;;;;;626236;229;26512;-73
2022/03/02 00:17:28;;;;;;;4.47;4.07;;;1.10;75.90;;;;;;626292;229;26792;-72
2022/03/02 00:19:55;;;;;;;4.37;3.97;;;1.10;76.10;;;;;;626239;229;26541;-72
2022/03/02 00:22:22;;;;;;;4.45;4.05;;;1.20;75.90;;;;;;626217;229;26603;-72
2022/03/02 00:24:51;;;;;;;5.28;4.53;;;1.10;76.20;;;;;;627877;227;26619;-72
2022/03/02 00:27:18;;;;;;;4.70;4.30;;;1.20;75.80;;;;;;627414;228;26597;-72
2022/03/02 00:29:45;;;;;;;5.18;4.60;;;1.20;75.80;;;;;;633157;226;26766;-72
2022/03/02 00:32:13;;;;;;;5.28;4.15;;;1.20;76.40;;;;;;636182;226;26602;-72
2022/03/02 00:34:40;;;;;;;4.47;4.03;;;1.30;75.70;;;;;;636019;226;26609;-72
2022/03/02 00:37:07;;;;;;;5.93;4.47;;;1.40;75.80;;;;;;635919;226;26803;-72
2022/03/02 00:39:34;;;;;;;4.47;4.07;;;1.40;75.60;;;;;;635952;226;26585;-72
2022/03/02 00:42:01;;;;;;;5.05;4.55;;;1.40;75.40;;;;;;635756;226;26598;-72
2022/03/02 00:44:29;;;;;;;4.80;4.35;;;1.40;76.10;;;;;;635568;226;26541;-72
2022/03/02 00:46:57;;;;;;;6.05;4.90;;;1.40;76.10;;;;;;635618;226;26558;-72
2022/03/02 00:49:27;;;;;;;5.35;4.85;;;1.40;75.70;;;;;;635607;226;26549;-72
2022/03/02 00:51:54;;;;;;;5.20;4.55;;;1.40;75.80;;;;;;635531;226;26598;-73
2022/03/02 00:54:22;;;;;;;4.65;4.25;;;1.40;75.90;;;;;;635621;226;26559;-73
2022/03/02 00:56:50;;;;;;;5.45;4.85;;;1.50;75.80;;;;;;635640;226;26534;-73
2022/03/02 00:59:18;;;;;;;6.80;4.50;;;1.60;75.70;;;;;;635569;226;26584;-72
2022/03/02 01:01:45;;;;;;;4.43;3.95;;;1.60;75.70;;;;;;635210;225;26809;-72
2022/03/02 01:04:12;;;;;;;5.32;4.82;;;1.70;75.80;;;;;;632394;226;26591;-72
2022/03/02 01:06:39;;;;;;;4.80;4.37;;;1.70;75.50;;;;;;625031;224;26789;-66
2022/03/02 01:09:07;;;;;;;4.82;4.32;;;1.60;75.60;;;;;;626136;229;26539;-66
2022/03/02 01:11:35;;;;;;;5.37;4.60;;;1.50;75.80;;;;;;626064;229;26539;-66
2022/03/02 01:14:03;;;;;;;5.90;4.70;;;1.50;76.80;;;;;;626021;230;26537;-66
2022/03/02 01:16:32;;;;;;;5.35;4.85;;;1.50;76.30;;;;;;626033;229;26784;-66
2022/03/02 01:18:58;;;;;;;4.30;3.90;;;1.50;76.20;;;;;;626075;224;26543;-66
2022/03/02 01:21:25;;;;;;;5.07;4.50;;;1.60;76.40;;;;;;623396;229;27263;-67
2022/03/02 01:23:56;;;;;;;5.82;4.87;;;1.60;76.60;;;;;;623464;230;26552;-67
2022/03/02 01:26:21;;;;;;;4.90;4.40;;;1.50;76.50;;;;;;623261;230;26545;-67
2022/03/02 01:28:48;;;;;;;6.85;5.05;;;1.50;76.80;;;;;;622493;231;26785;-67
2022/03/02 01:31:16;;;;;;;6.12;4.90;;;1.50;77.10;;;;;;622397;230;26806;-67
2022/03/02 01:33:44;;;;;;;5.25;4.75;;;1.50;76.90;;;;;;622946;231;26627;-67
2022/03/02 01:36:12;;;;;;;5.22;4.72;;;1.40;77.40;;;;;;624463;228;26634;-67
2022/03/02 01:38:39;;;;;;;5.47;4.32;;;1.30;77.20;;;;;;624252;228;26785;-67
2022/03/02 01:41:06;;;;;;;5.87;4.78;;;1.50;77.90;;;;;;623882;229;26594;-67
2022/03/02 01:43:33;;;;;;;5.90;5.22;;;1.50;77.80;;;;;;623801;229;26839;-67
2022/03/02 01:46:00;;;;;;;6.10;5.00;;;1.50;77.50;;;;;;623544;229;26552;-67
2022/03/02 01:48:28;;;;;;;6.15;5.40;;;1.50;77.30;;;;;;623612;229;27044;-67
2022/03/02 01:50:55;;;;;;;7.07;4.65;;;1.50;77.70;;;;;;623590;229;26515;-67
2022/03/02 01:53:23;;;;;;;5.43;4.93;;;1.50;78.00;;;;;;623399;229;26555;-67
2022/03/02 01:55:51;;;;;;;5.28;4.78;;;1.50;77.90;;;;;;623290;230;26808;-67
2022/03/02 01:58:18;;;;;;;6.28;4.80;;;1.50;77.70;;;;;;623246;229;26576;-67
2022/03/02 02:00:45;;;;;;;5.93;5.10;;;1.50;78.00;;;;;;623208;230;26859;-67
2022/03/02 02:03:13;;;;;;;5.12;4.62;;;1.50;77.90;;;;;;623239;229;26812;-67
2022/03/02 02:05:40;;;;;;;5.32;4.50;;;1.50;77.80;;;;;;623291;231;26604;-67
2022/03/02 02:08:08;;;;;;;5.47;4.95;;;1.50;78.20;;;;;;623304;229;26821;-67
2022/03/02 02:10:37;;;;;;;5.78;4.70;;;1.50;78.40;;;;;;627517;226;26580;-67
2022/03/02 02:13:04;;;;;;;5.87;4.57;;;1.50;78.30;;;;;;625450;226;26607;-67
2022/03/02 02:15:32;;;;;;;5.78;4.55;;;1.50;78.60;;;;;;622944;229;26603;-67
2022/03/02 02:18:00;;;;;;;5.47;4.72;;;1.40;78.30;;;;;;622817;229;26892;-67
2022/03/02 02:20:27;;;;;;;5.35;4.72;;;1.50;78.00;;;;;;622840;229;26614;-67
2022/03/02 02:22:55;;;;;;;5.80;5.20;;;1.50;78.60;;;;;;622897;229;26615;-67
2022/03/02 02:25:23;;;;;;;5.68;4.60;;;1.50;78.60;;;;;;622923;230;26597;-67
2022/03/02 02:27:52;;;;;;;5.55;5.00;;;1.50;78.50;;;;;;622948;231;26585;-67
2022/03/02 02:30:19;;;;;;;4.97;4.53;;;1.50;78.50;;;;;;626314;229;26512;-67
2022/03/02 02:32:46;;;;;;;5.95;5.20;;;1.50;78.70;;;;;;626605;224;26544;-67
2022/03/02 02:35:13;;;;;;;5.22;4.72;;;1.50;78.40;;;;;;626620;229;26930;-67
2022/03/02 02:37:40;;;;;;;6.25;5.47;;;1.50;78.40;;;;;;626588;229;26686;-67
2022/03/02 02:40:09;;;;;;;5.55;5.05;;;1.50;78.20;;;;;;626217;229;26812;-67
2022/03/02 02:42:36;;;;;;;5.03;4.60;;;1.50;78.40;;;;;;626143;229;26648;-67
2022/03/02 02:45:03;;;;;;;6.75;5.57;;;1.60;78.20;;;;;;626230;230;26788;-67
2022/03/02 02:47:30;;;;;;;5.85;5.25;;;1.50;78.40;;;;;;627610;227;26584;-67
2022/03/02 02:49:57;;;;;;;5.70;5.20;;;1.60;78.20;;;;;;627556;229;26891;-67
2022/03/02 02:52:24;;;;;;;5.75;5.18;;;1.50;78.20;;;;;;627187;228;26532;-67
2022/03/02 02:54:52;;;;;;;6.22;5.30;;;1.60;78.30;;;;;;627215;229;26550;-67
2022/03/02 02:57:19;;;;;;;5.65;4.87;;;1.50;78.80;;;;;;626927;228;26593;-67
2022/03/02 02:59:47;;;;;;;6.37;5.25;;;1.60;77.90;;;;;;626974;229;26836;-67
2022/03/02 03:02:14;;;;;;;5.37;4.87;;;1.60;77.90;;;;;;626878;229;26625;-67
2022/03/02 03:04:42;;;;;;;5.57;5.03;;;1.60;77.90;;;;;;626842;228;26564;-67
2022/03/02 03:07:10;;;;;;;5.40;4.90;;;1.70;78.50;;;;;;626617;229;26544;-67
2022/03/02 03:09:37;;;;;;;5.43;4.85;;;1.70;77.90;;;;;;626552;229;26771;-67
2022/03/02 03:12:05;;;;;;;6.87;5.15;;;1.70;77.70;;;;;;626490;229;26565;-67
2022/03/02 03:14:33;;;;;;;5.75;5.18;;;1.50;78.20;;;;;;626547;224;26544;-67
2022/03/02 03:17:01;;;;;;;5.30;4.80;;;1.40;78.50;;;;;;626559;229;26544;-67
2022/03/02 03:19:28;;;;;;;5.97;5.28;;;1.40;78.50;;;;;;626503;229;26507;-67
2022/03/02 03:21:55;;;;;;;6.22;5.05;;;1.50;78.60;;;;;;627062;226;26625;-67
2022/03/02 03:24:22;;;;;;;5.62;5.00;;;1.70;78.60;;;;;;625291;229;26896;-67
2022/03/02 03:26:49;;;;;;;5.95;5.35;;;1.70;78.70;;;;;;626139;229;26716;-67
2022/03/02 03:29:17;;;;;;;6.37;5.03;;;1.70;78.50;;;;;;630266;226;26540;-67
2022/03/02 03:31:44;;;;;;;5.68;5.10;;;1.70;78.30;;;;;;635231;226;26532;-67
2022/03/02 03:34:11;;;;;;;6.85;5.68;;;1.70;78.10;;;;;;635236;226;26761;-67
2022/03/02 03:36:38;;;;;;;5.12;4.55;;;1.70;77.90;;;;;;635316;226;26540;-67
2022/03/02 03:39:06;;;;;;;5.78;5.18;;;1.80;78.00;;;;;;635274;226;27259;-67
2022/03/02 03:41:33;;;;;;;6.05;5.45;;;1.80;78.00;;;;;;635331;226;26541;-67
2022/03/02 03:44:01;;;;;;;6.30;5.03;;;1.80;78.20;;;;;;635278;226;26640;-67
2022/03/02 03:46:29;;;;;;;5.93;5.35;;;1.80;78.20;;;;;;635335;226;26592;-67
2022/03/02 03:48:56;;;;;;;5.50;4.95;;;1.80;78.00;;;;;;635368;226;26726;-67
2022/03/02 03:51:23;;;;;;;5.70;5.20;;;1.80;78.20;;;;;;635251;226;26536;-67
2022/03/02 03:53:50;;;;;;;5.75;5.10;;;1.80;78.50;;;;;;635338;226;26524;-67
2022/03/02 03:56:18;;;;;;;6.37;5.45;;;1.80;78.10;;;;;;635346;226;26516;-67
2022/03/02 03:58:45;;;;;;;5.80;5.28;;;1.80;78.10;;;;;;636445;224;26620;-65
2022/03/02 04:01:13;;;;;;;6.32;5.30;;;1.70;78.20;;;;;;636614;225;26548;-67
2022/03/02 04:03:41;;;;;;;5.72;5.12;;;1.70;78.20;;;;;;636344;226;26828;-67
2022/03/02 04:06:08;;;;;;;5.93;5.07;;;1.80;78.20;;;;;;636266;226;26594;-67
2022/03/02 04:08:35;;;;;;;6.80;5.30;;;1.80;78.00;;;;;;635914;226;26582;-65
2022/03/02 04:11:03;;;;;;;6.25;5.60;;;1.80;77.50;;;;;;635993;226;26810;-66
2022/03/02 04:13:29;;;;;;;6.20;5.57;;;1.80;77.50;;;;;;635892;226;26604;-66
2022/03/02 04:15:56;;;;;;;6.90;5.40;;;1.70;77.70;;;;;;635889;226;26561;-66
2022/03/02 04:18:24;;;;;;;7.22;5.40;;;1.70;77.60;;;;;;635577;226;26587;-66
2022/03/02 04:20:52;;;;;;;6.32;4.87;;;1.70;78.40;;;;;;635541;226;26613;-66
2022/03/02 04:23:21;;;;;;;6.43;5.22;;;1.60;78.20;;;;;;635589;225;27253;-66
2022/03/02 04:25:47;;;;;;;6.40;5.60;;;1.70;78.70;;;;;;635629;226;26522;-66
2022/03/02 04:28:14;;;;;;;6.40;5.43;;;1.80;77.70;;;;;;635731;225;26850;-66
2022/03/02 04:30:41;;;;;;;5.78;5.28;;;1.70;77.50;;;;;;637834;225;26570;-66
2022/03/02 04:33:08;;;;;;;6.40;5.80;;;1.80;77.00;;;;;;624769;225;26894;-66
2022/03/02 04:35:36;;;;;;;6.57;5.15;;;1.80;77.30;;;;;;626201;228;26512;-66
2022/03/02 04:38:04;;;;;;;5.55;5.05;;;1.80;77.20;;;;;;626232;229;26500;-66
2022/03/02 04:40:31;;;;;;;5.85;5.25;;;1.80;77.20;;;;;;626294;229;26540;-66
2022/03/02 04:42:58;;;;;;;7.25;6.03;;;1.80;77.20;;;;;;626059;229;26789;-66
2022/03/02 04:45:27;;;;;;;5.68;5.07;;;1.80;76.70;;;;;;626227;230;26574;-66
2022/03/02 04:47:54;;;;;;;5.87;5.30;;;1.70;76.60;;;;;;626207;229;26577;-66
2022/03/02 04:50:22;;;;;;;6.20;5.57;;;1.70;76.60;;;;;;626249;229;26560;-66
2022/03/02 04:52:48;;;;;;;6.22;5.40;;;1.80;76.20;;;;;;626439;230;26545;-66
2022/03/02 04:55:16;;;;;;;6.43;5.47;;;1.70;75.90;;;;;;626615;229;26806;-66
2022/03/02 04:57:43;;;;;;;5.75;5.22;;;1.70;76.40;;;;;;626623;229;26508;-66
2022/03/02 05:00:12;;;;;;;7.97;5.62;;;1.80;76.00;;;;;;626590;229;26524;-66
2022/03/02 05:02:40;;;;;;;6.35;5.40;;;1.80;75.60;;;;;;626589;229;26585;-66
2022/03/02 05:05:08;;;;;;;7.10;6.22;;;1.80;75.50;;;;;;626637;230;26558;-66
2022/03/02 05:07:35;;;;;;;6.80;5.80;;;1.80;75.50;;;;;;626620;229;26790;-66
2022/03/02 05:10:02;;;;;;;7.30;5.82;;;1.70;75.20;;;;;;627224;226;26586;-66
2022/03/02 05:12:29;;;;;;;6.65;5.82;;;1.60;75.70;;;;;;624637;228;26544;-66
2022/03/02 05:14:57;;;;;;;5.82;5.22;;;1.70;75.60;;;;;;627576;228;26527;-66
2022/03/02 05:17:24;;;;;;;5.82;5.22;;;1.80;75.20;;;;;;627594;228;26505;-66
2022/03/02 05:19:51;;;;;;;6.05;5.53;;;1.70;75.40;;;;;;627301;228;26505;-66
2022/03/02 05:22:18;;;;;;;6.90;6.03;;;1.80;75.10;;;;;;627113;229;26595;-66
2022/03/02 05:24:45;;;;;;;6.50;5.80;;;1.70;75.30;;;;;;626638;229;26781;-66
2022/03/02 05:27:13;;;;;;;6.75;5.62;;;1.60;75.70;;;;;;623529;225;26532;-66
2022/03/02 05:29:40;;;;;;;5.50;5.00;;;1.40;76.00;;;;;;625296;229;26571;-66
2022/03/02 05:32:08;;;;;;;7.15;6.03;;;1.30;76.50;;;;;;626477;229;26584;-66
2022/03/02 05:34:35;;;;;;;8.18;5.50;;;1.30;76.50;;;;;;626476;229;26556;-66
2022/03/02 05:37:02;;;;;;;7.55;5.95;;;1.30;76.50;;;;;;627455;225;26857;-66
2022/03/02 05:39:31;;;;;;;6.25;5.65;;;1.60;79.80;;;;;;632089;226;26557;-66
2022/03/02 05:41:58;;;;;;;6.53;5.85;;;1.60;79.80;;;;;;635606;226;26598;-66
2022/03/02 05:44:25;;;;;;;6.57;5.70;;;1.60;77.30;;;;;;635657;226;26554;-66
2022/03/02 05:46:52;;;;;;;7.43;5.85;;;1.50;76.60;;;;;;635410;226;26816;-66
2022/03/02 05:49:19;;;;;;;6.57;5.75;;;1.40;76.90;;;;;;635414;226;26565;-67
2022/03/02 05:51:47;;;;;;;6.78;6.10;;;1.50;76.90;;;;;;635274;226;26568;-67
2022/03/02 05:54:15;;;;;;;6.78;6.07;;;1.50;77.30;;;;;;635365;226;26555;-67
2022/03/02 05:56:43;;;;;;;6.62;5.43;;;1.40;77.60;;;;;;635375;226;26542;-67
2022/03/02 05:59:10;;;;;;;7.57;5.75;;;1.40;77.50;;;;;;635410;226;26777;-67
2022/03/02 06:01:37;;;;;;;6.45;5.62;;;1.40;78.10;;;;;;635300;226;26581;-67
2022/03/02 06:04:05;;;;;;;6.85;6.00;;;1.40;78.20;;;;;;635383;222;26811;-67
2022/03/02 06:06:33;;;;;;;7.12;6.43;;;1.40;78.00;;;;;;635265;226;26601;-67
2022/03/02 06:09:00;;;;;;;6.68;6.07;;;1.50;78.20;;;;;;635315;226;27307;-67
2022/03/02 06:11:28;;;;;;;7.07;6.00;;;1.70;77.80;;;;;;635209;226;26529;-67
2022/03/02 06:13:56;;;;;;;6.60;6.00;;;1.70;76.10;;;;;;635277;226;26560;-67
2022/03/02 06:16:24;;;;;;;7.28;6.30;;;1.70;76.20;;;;;;635329;226;26535;-67
2022/03/02 06:18:50;;;;;;;6.72;6.12;;;1.80;76.70;;;;;;635242;226;26999;-67
2022/03/02 06:21:18;;;;;;;7.30;5.60;;;1.90;76.30;;;;;;635888;224;26553;-67
2022/03/02 06:23:46;;;;;;;6.10;5.50;;;2.00;76.80;;;;;;636596;225;26578;-67
2022/03/02 06:26:13;;;;;;;6.62;5.80;;;1.90;76.40;;;;;;636368;226;26532;-67
2022/03/02 06:28:42;;;;;;;6.97;6.28;;;2.00;76.60;;;;;;633658;226;27142;-66
2022/03/02 06:31:09;;;;;;;6.37;5.78;;;2.00;76.60;;;;;;623684;229;26750;-67
2022/03/02 06:33:36;;;;;;;7.30;6.32;;;2.10;76.40;;;;;;624664;229;26547;-67
2022/03/02 06:36:04;;;;;;;5.95;5.37;;;2.10;76.60;;;;;;623280;229;26828;-67
2022/03/02 06:38:31;;;;;;;6.07;5.47;;;2.20;76.00;;;;;;623954;229;26524;-67
2022/03/02 06:41:03;;;;;;;6.00;5.40;;;2.30;75.90;;;;;;623650;229;26763;-67
2022/03/02 06:43:31;;;;;;;6.68;5.97;;;2.30;75.80;;;;;;623537;229;26536;-67
2022/03/02 06:45:58;;;;;;;6.85;6.03;;;2.40;75.70;;;;;;624548;226;26535;-67
2022/03/02 06:48:32;;;;;;;6.47;5.70;;;2.40;75.40;;;;;;628796;226;26821;-67
2022/03/02 06:51:00;;;;;;;7.07;5.97;;;2.50;76.00;;;;;;623225;228;26599;-67
2022/03/02 06:53:36;;;;;;;6.50;5.60;;;2.50;76.00;;;;;;623139;231;26621;-66
2022/03/02 06:56:03;;;;;;;6.37;5.78;;;2.50;75.70;;;;;;623267;231;26564;-67
2022/03/02 06:58:34;;;;;;;6.10;5.45;;;2.60;75.90;;;;;;622974;229;26595;-67
2022/03/02 07:01:01;;;;;;;6.32;5.57;;;2.70;75.40;;;;;;622518;227;26601;-66
2022/03/02 07:03:29;;;;;;;5.97;5.43;;;2.60;75.60;;;;;;622858;229;26850;-66
2022/03/02 07:05:56;;;;;;;19.67;6.22;;;2.60;75.20;;;;;;622163;229;26567;-64
2022/03/02 07:08:23;;;;;;;9.20;6.10;;;2.60;75.50;;;;;;622991;229;26824;-63
2022/03/02 07:10:51;;;;;;;8.35;6.30;;;2.50;75.20;;;;;;622908;229;26607;-64
2022/03/02 07:13:19;;;;;;;11.55;6.45;;;2.60;74.70;;;;;;622894;229;26607;-62
2022/03/02 07:15:47;;;;;;;7.07;6.20;;;2.60;75.20;;;;;;622615;229;26543;-62
2022/03/02 07:18:15;;;;;;;8.30;6.57;;;2.60;75.20;;;;;;622978;229;26789;-63
2022/03/02 07:20:41;;;;;;;8.18;6.93;;;2.70;75.00;;;;;;622869;224;26580;-63
2022/03/02 07:23:09;;;;;;;8.23;6.95;;;2.70;74.10;;;;;;622866;231;26867;-64
2022/03/02 07:25:37;;;;;;;7.72;7.00;;;2.70;74.20;;;;;;622591;229;27008;-63
2022/03/02 07:28:04;;;;;;;12.65;8.07;;;2.80;74.30;;;;;;622878;229;26794;-63
2022/03/02 07:30:32;;;;;;;9.15;7.20;;;2.80;73.70;;;;;;626094;229;26544;-63
2022/03/02 07:33:01;;;;;;;9.68;8.20;;;2.80;73.60;;;;;;626956;227;26603;-63
2022/03/02 07:35:28;;;;;;;10.50;7.60;;;2.80;73.60;;;;;;627639;223;26741;-63
2022/03/02 07:37:56;;;;;;;9.45;7.85;;;2.80;73.20;;;;;;627194;228;26536;-63
2022/03/02 07:40:24;;;;;;;10.60;7.80;;;2.90;73.20;;;;;;627119;228;26524;-63
2022/03/02 07:42:52;;;;;;;10.73;8.25;;;2.80;73.50;;;;;;626912;228;26561;-63
2022/03/02 07:45:19;;;;;;;10.13;8.15;;;2.80;73.10;;;;;;626776;229;26616;-63
2022/03/02 07:47:47;;;;;;;9.55;8.07;;;2.80;73.10;;;;;;626718;229;26621;-63
2022/03/02 07:50:14;;;;;;;12.27;8.43;;;2.90;73.10;;;;;;626461;229;26826;-62
2022/03/02 07:52:41;;;;;;;12.37;8.57;;;2.90;73.00;;;;;;626227;229;26563;-62
2022/03/02 07:55:09;;;;;;;10.38;8.82;;;3.00;72.70;;;;;;624145;229;26805;-62
2022/03/02 07:57:35;;;;;;;10.20;9.15;;;2.90;73.00;;;;;;634980;226;26758;-62
2022/03/02 08:00:03;;;;;;;11.02;9.15;;;3.00;73.30;;;;;;635968;226;26505;-65
2022/03/02 08:02:31;;;;;;;21.37;8.93;;;3.20;72.80;;;;;;635909;225;26558;-65
2022/03/02 08:04:58;;;;;;;12.60;8.75;;;3.20;73.50;;;;;;635994;226;26567;-65
2022/03/02 08:07:25;;;;;;;19.23;9.02;;;3.30;72.60;;;;;;636045;226;26543;-64
2022/03/02 08:09:53;;;;;;;26.90;9.55;;;3.20;72.80;;;;;;635779;226;26536;-65
2022/03/02 08:12:20;;;;;;;50.75;10.60;;;3.30;73.10;;;;;;635343;226;26910;-65
2022/03/02 08:14:47;;;;;;;88.55;21.45;;;3.20;72.80;;;;;;635397;226;26532;-64
2022/03/02 08:17:15;;;;;;;123.60;27.33;;;3.20;72.60;;;;;;635235;225;26790;-64
2022/03/02 08:19:42;;;;;;;166.80;32.33;;;3.30;73.00;;;;;;635304;226;26725;-66
2022/03/02 08:22:11;;;;;;;461.90;51.37;;;3.40;72.90;;;;;;635252;226;26629;-66
2022/03/02 08:24:41;;;;;;;136.07;30.58;;;3.50;72.20;;;;;;635188;226;26548;-66
2022/03/02 08:27:05;;;;;;;105.22;25.80;;;3.40;72.30;;;;;;634248;225;26620;-67
2022/03/02 08:29:32;;;;;;;83.43;24.15;;;3.50;72.70;;;;;;628892;225;26860;-67
2022/03/02 08:32:00;;;;;;;68.07;21.17;;;3.50;71.90;;;;;;630522;226;26584;-67
2022/03/02 08:34:28;;;;;;;62.15;21.23;;;3.70;72.00;;;;;;634991;225;27385;-67
2022/03/02 08:36:55;;;;;;;61.05;20.90;;;3.70;72.10;;;;;;625701;225;26687;-67
2022/03/02 08:39:25;;;;;;;64.95;21.37;;;4.10;70.80;;;;;;632055;226;26603;-68
2022/03/02 08:41:53;;;;;;;65.78;21.02;;;4.20;69.80;;;;;;625641;226;26643;-68
2022/03/02 08:44:20;;;;;;;65.18;20.10;;;4.20;69.80;;;;;;627582;225;26547;-68
2022/03/02 08:46:48;;;;;;;50.47;17.92;;;4.30;69.10;;;;;;626702;224;26980;-68
2022/03/02 08:49:15;;;;;;;44.78;17.10;;;4.40;69.40;;;;;;632174;225;26575;-68
2022/03/02 08:51:42;;;;;;;44.92;16.50;;;4.60;68.30;;;;;;625805;225;26577;-67
2022/03/02 08:54:12;;;;;;;23.98;13.00;;;4.80;67.10;;;;;;629609;226;26972;-67
2022/03/02 08:56:37;;;;;;;21.33;12.95;;;5.00;67.00;;;;;;623103;229;26534;-67
2022/03/02 08:59:04;;;;;;;16.40;11.57;;;5.20;66.40;;;;;;625096;228;26809;-67
2022/03/02 09:01:31;;;;;;;17.10;12.75;;;5.20;64.90;;;;;;630186;225;26599;-67
2022/03/02 09:03:58;;;;;;;18.00;12.65;;;5.40;65.40;;;;;;629540;225;26798;-67
2022/03/02 09:06:25;;;;;;;18.65;12.13;;;5.50;64.50;;;;;;624526;229;26614;-68
2022/03/02 09:08:53;;;;;;;19.40;12.35;;;5.60;63.40;;;;;;628552;226;26774;-68
2022/03/02 09:11:20;;;;;;;17.12;11.90;;;5.80;63.50;;;;;;629505;225;26602;-65
2022/03/02 09:13:47;;;;;;;17.20;12.77;;;5.80;63.20;;;;;;624025;225;26785;-67
2022/03/02 09:16:14;;;;;;;19.17;11.93;;;5.90;63.60;;;;;;634107;225;26612;-67
2022/03/02 09:18:41;;;;;;;16.02;11.15;;;5.90;61.70;;;;;;633095;226;26537;-67
2022/03/02 09:21:09;;;;;;;15.68;10.93;;;6.00;61.50;;;;;;633088;226;26905;-66
2022/03/02 09:23:38;;;;;;;15.25;11.38;;;6.10;61.30;;;;;;630043;225;26608;-67
2022/03/02 09:26:03;;;;;;;16.12;10.40;;;6.20;60.60;;;;;;626389;227;26820;-67
2022/03/02 09:28:30;;;;;;;14.05;10.68;;;6.20;60.80;;;;;;622841;226;26584;-67
2022/03/02 09:30:57;;;;;;;13.30;10.25;;;6.20;60.00;;;;;;623715;224;27289;-67
2022/03/02 09:33:25;;;;;;;13.95;10.23;;;6.20;60.10;;;;;;624992;229;26616;-67
2022/03/02 09:35:52;;;;;;;13.18;10.75;;;6.30;60.10;;;;;;628835;226;26825;-68
2022/03/02 09:38:20;;;;;;;13.93;10.10;;;6.30;59.90;;;;;;635230;226;26581;-67
2022/03/02 09:40:46;;;;;;;12.65;9.68;;;6.20;59.80;;;;;;635590;225;26788;-67
2022/03/02 09:43:14;;;;;;;13.45;10.18;;;6.20;59.50;;;;;;629885;225;26572;-67
2022/03/02 09:45:41;;;;;;;13.45;10.15;;;6.20;59.50;;;;;;625230;226;26812;-67
2022/03/02 09:48:09;;;;;;;12.90;9.90;;;6.10;59.10;;;;;;623802;229;26638;-67
2022/03/02 09:50:37;;;;;;;12.93;10.00;;;6.20;58.80;;;;;;599475;238;26882;-67
2022/03/02 09:53:03;;;;;;;11.70;9.98;;;6.30;58.20;;;;;;609916;235;26607;-67
2022/03/02 09:55:30;;;;;;;13.10;10.15;;;6.40;59.40;;;;;;609926;233;26861;-67
2022/03/02 09:57:57;;;;;;;13.62;10.00;;;6.50;57.90;;;;;;623214;230;26580;-67
2022/03/02 10:00:25;;;;;;;11.80;9.77;;;6.50;57.30;;;;;;618339;232;26831;-67
2022/03/02 10:02:52;;;;;;;12.55;9.82;;;6.50;57.30;;;;;;614547;232;26612;-67
2022/03/02 10:05:21;;;;;;;13.20;9.75;;;6.60;57.00;;;;;;613729;232;26549;-68
2022/03/02 10:07:53;;;;;;;11.80;9.40;;;6.60;57.00;;;;;;621487;230;26561;-67
2022/03/02 10:10:23;;;;;;;13.50;10.23;;;6.60;56.80;;;;;;632911;226;26749;-66
2022/03/02 10:12:51;;;;;;;10.48;9.35;;;6.70;57.40;;;;;;625426;226;26551;-66
2022/03/02 10:15:19;;;;;;;11.02;9.60;;;6.70;57.20;;;;;;629979;226;26957;-66
2022/03/02 10:17:46;;;;;;;13.45;10.20;;;6.80;56.70;;;;;;625550;226;26550;-66
2022/03/02 10:20:14;;;;;;;12.37;8.80;;;6.80;56.70;;;;;;623730;229;26599;-66
2022/03/02 10:22:59;;;;;;;13.90;9.43;;;7.10;55.80;;;;;;629664;226;27284;-66
2022/03/02 10:25:43;;;;;;;14.32;9.80;;;7.00;55.70;;;;;;635577;221;26531;-66
2022/03/02 10:28:10;;;;;;;12.52;9.50;;;7.00;55.50;;;;;;626325;229;26860;-67
2022/03/02 10:30:38;;;;;;;10.68;8.70;;;7.10;55.50;;;;;;626317;226;26540;-66
2022/03/02 10:33:21;;;;;;;11.68;9.30;;;7.30;55.80;;;;;;632209;225;26808;-65
2022/03/02 10:35:51;;;;;;;10.40;8.75;;;7.30;54.40;;;;;;629242;225;26595;-67
2022/03/02 10:38:18;;;;;;;10.13;8.75;;;7.30;54.50;;;;;;623332;226;26557;-66
2022/03/02 10:40:47;;;;;;;10.90;8.65;;;7.10;53.30;;;;;;623322;229;26575;-66
2022/03/02 10:43:14;;;;;;;10.20;8.63;;;7.00;53.70;;;;;;624301;226;26607;-66
2022/03/02 10:45:44;;;;;;;11.65;9.30;;;7.20;53.60;;;;;;625152;229;27194;-67
2022/03/02 10:48:19;;;;;;;11.02;8.75;;;7.40;53.40;;;;;;623408;227;26841;-66
2022/03/02 10:50:48;;;;;;;13.15;9.18;;;7.40;51.90;;;;;;624024;230;26824;-66
2022/03/02 10:53:15;;;;;;;13.35;8.75;;;7.50;52.90;;;;;;624192;226;26574;-67
2022/03/02 10:55:43;;;;;;;15.20;9.40;;;7.50;52.50;;;;;;622968;229;26827;-66
2022/03/02 10:58:10;;;;;;;19.42;9.52;;;7.50;52.50;;;;;;623010;229;26568;-66
2022/03/02 11:00:37;;;;;;;13.80;9.02;;;7.60;52.80;;;;;;622371;229;26584;-66
2022/03/02 11:03:05;;;;;;;16.33;9.60;;;7.60;53.00;;;;;;622528;229;26662;-66
2022/03/02 11:05:33;;;;;;;10.95;8.88;;;7.60;52.80;;;;;;622675;229;26620;-66
2022/03/02 11:08:00;;;;;;;14.45;9.50;;;7.60;52.70;;;;;;623595;228;27341;-67
2022/03/02 11:10:33;;;;;;;17.55;8.82;;;7.60;52.90;;;;;;624101;228;26540;-66
2022/03/02 11:12:57;;;;;;;19.30;10.13;;;7.50;52.60;;;;;;623893;229;26845;-66
2022/03/02 11:15:24;;;;;;;17.27;9.70;;;7.50;53.20;;;;;;623840;228;26579;-65
2022/03/02 11:17:51;;;;;;;77.72;20.85;;;7.30;53.80;;;;;;623567;223;27089;-66
2022/03/02 11:20:19;;;;;;;113.50;27.83;;;7.30;55.00;;;;;;623523;229;26540;-64
2022/03/02 11:22:51;;;;;;;95.40;24.70;;;7.40;65.30;;;;;;623824;229;26777;-67
2022/03/02 11:25:18;;;;;;;103.38;24.08;;;7.30;58.10;;;;;;630074;225;26563;-65
2022/03/02 11:27:45;;;;;;;89.57;24.58;;;7.20;56.00;;;;;;636829;225;26511;-65
2022/03/02 11:30:13;;;;;;;89.10;22.55;;;7.10;54.80;;;;;;636017;226;26807;-66
2022/03/02 11:32:41;;;;;;;81.50;20.52;;;6.90;54.40;;;;;;635704;226;26554;-65
2022/03/02 11:35:13;;;;;;;67.30;20.20;;;6.80;54.90;;;;;;635637;226;26551;-65
2022/03/02 11:37:37;;;;;;;66.82;18.52;;;6.80;54.90;;;;;;625176;226;26976;-66
2022/03/02 11:40:05;;;;;;;36.38;13.30;;;6.70;54.20;;;;;;623214;229;26586;-66
2022/03/02 11:42:34;;;;;;;23.65;10.55;;;6.80;54.00;;;;;;623931;229;26616;-66
2022/03/02 11:45:02;;;;;;;24.23;12.15;;;6.80;53.30;;;;;;626107;229;26593;-66
2022/03/02 11:47:33;;;;;;;52.20;19.00;;;6.80;53.30;;;;;;626126;229;26575;-66
2022/03/02 11:50:00;;;;;;;34.72;16.40;;;6.80;52.90;;;;;;624469;229;26607;-66
2022/03/02 11:52:29;;;;;;;43.08;20.83;;;6.80;52.50;;;;;;625982;228;26599;-65
2022/03/02 11:54:59;;;;;;;36.08;16.55;;;6.80;52.50;;;;;;625918;228;26823;-65
2022/03/02 11:57:26;;;;;;;35.75;18.90;;;6.90;52.40;;;;;;627503;225;26577;-65
2022/03/02 12:00:09;;;;;;;42.65;21.55;;;7.00;52.50;;;;;;626353;227;26803;-66
2022/03/02 12:02:42;;;;;;;40.92;19.02;;;7.00;52.30;;;;;;631103;225;26857;-66
2022/03/02 12:05:09;;;;;;;35.70;16.65;;;7.00;51.70;;;;;;629835;225;26791;-65
2022/03/02 12:07:39;;;;;;;37.70;17.75;;;7.10;51.20;;;;;;624254;229;26580;-64
2022/03/02 12:10:18;;;;;;;37.25;17.00;;;7.20;51.20;;;;;;625630;230;26521;-67
2022/03/02 12:12:46;;;;;;;38.95;16.98;;;7.30;49.70;;;;;;631281;226;26586;-67
2022/03/02 12:15:13;;;;;;;36.92;17.73;;;7.30;50.00;;;;;;625937;229;26794;-67
2022/03/02 12:17:40;;;;;;;28.20;17.02;;;7.20;48.40;;;;;;626222;229;26523;-66
2022/03/02 12:20:10;;;;;;;37.13;16.67;;;7.20;49.60;;;;;;627206;227;26809;-66
2022/03/02 12:22:38;;;;;;;32.42;16.77;;;7.40;49.40;;;;;;629646;226;26619;-66
2022/03/02 12:25:06;;;;;;;31.45;16.77;;;7.40;50.60;;;;;;631109;226;26594;-67
2022/03/02 12:27:33;;;;;;;34.10;15.77;;;7.40;50.60;;;;;;628736;226;26541;-66
2022/03/02 12:30:01;;;;;;;35.40;17.55;;;7.50;50.30;;;;;;625404;226;26871;-66
2022/03/02 12:32:29;;;;;;;26.00;15.75;;;7.60;49.90;;;;;;630977;226;26632;-66
2022/03/02 12:34:56;;;;;;;31.52;15.65;;;7.60;50.30;;;;;;625393;229;26579;-67
2022/03/02 12:37:24;;;;;;;31.33;16.48;;;7.60;50.00;;;;;;625280;229;26534;-68
2022/03/02 12:39:52;;;;;;;26.70;15.50;;;7.70;49.70;;;;;;623992;228;26586;-67
2022/03/02 12:42:19;;;;;;;25.40;14.57;;;7.70;49.40;;;;;;627035;226;26764;-66
2022/03/02 12:44:47;;;;;;;28.48;17.10;;;7.70;50.70;;;;;;624211;226;26805;-66
2022/03/02 12:47:15;;;;;;;29.30;15.38;;;7.90;49.80;;;;;;625035;226;26621;-65
2022/03/02 12:49:43;;;;;;;21.70;13.73;;;7.90;49.70;;;;;;625091;229;26553;-66
2022/03/02 12:52:10;;;;;;;27.98;14.45;;;7.80;49.20;;;;;;622550;225;26630;-69